sensor_id;sensor_type;location;lat;lon;timestamp;P1;durP1;ratioP1;P2;durP2;ratioP2
44536;SDS011;30245;51.966;6.292;2022-11-14T00:02:02;18.27;;;11.67;;
44536;SDS011;30245;51.966;6.292;2022-11-14T00:04:27;19.43;;;13.17;;
44536;SDS011;30245;51.966;6.292;2022-11-14T00:06:53;18.90;;;11.90;;
44536;SDS011;30245;51.966;6.292;2022-11-14T00:09:19;23.17;;;12.47;;
44536;SDS011;30245;51.966;6.292;2022-11-14T00:11:48;20.53;;;13.37;;
44536;SDS011;30245;51.966;6.292;2022-11-14T00:14:13;21.43;;;14.27;;
44536;SDS011;30245;51.966;6.292;2022-11-14T00:16:39;17.53;;;12.23;;
44536;SDS011;30245;51.966;6.292;2022-11-14T00:19:04;19.33;;;13.67;;
44536;SDS011;30245;51.966;6.292;2022-11-14T00:21:30;21.80;;;14.67;;
44536;SDS011;30245;51.966;6.292;2022-11-14T00:23:56;19.70;;;14.10;;
44536;SDS011;30245;51.966;6.292;2022-11-14T00:26:21;18.67;;;14.23;;
44536;SDS011;30245;51.966;6.292;2022-11-14T00:28:47;21.40;;;13.97;;
44536;SDS011;30245;51.966;6.292;2022-11-14T00:31:12;27.30;;;15.83;;
44536;SDS011;30245;51.966;6.292;2022-11-14T00:33:38;22.57;;;16.13;;
44536;SDS011;30245;51.966;6.292;2022-11-14T00:36:04;23.33;;;14.37;;
44536;SDS011;30245;51.966;6.292;2022-11-14T00:38:29;24.87;;;15.50;;
44536;SDS011;30245;51.966;6.292;2022-11-14T00:40:55;16.77;;;12.50;;
44536;SDS011;30245;51.966;6.292;2022-11-14T00:43:20;25.77;;;14.60;;
44536;SDS011;30245;51.966;6.292;2022-11-14T00:45:46;23.27;;;13.80;;
44536;SDS011;30245;51.966;6.292;2022-11-14T00:48:12;20.00;;;12.00;;
44536;SDS011;30245;51.966;6.292;2022-11-14T00:50:38;19.47;;;13.90;;
44536;SDS011;30245;51.966;6.292;2022-11-14T00:53:04;24.13;;;15.23;;
44536;SDS011;30245;51.966;6.292;2022-11-14T00:55:30;27.47;;;15.70;;
44536;SDS011;30245;51.966;6.292;2022-11-14T00:57:55;23.20;;;15.40;;
44536;SDS011;30245;51.966;6.292;2022-11-14T01:00:21;20.17;;;13.13;;
44536;SDS011;30245;51.966;6.292;2022-11-14T01:02:46;23.97;;;14.33;;
44536;SDS011;30245;51.966;6.292;2022-11-14T01:05:12;21.33;;;13.37;;
44536;SDS011;30245;51.966;6.292;2022-11-14T01:07:38;25.67;;;15.93;;
44536;SDS011;30245;51.966;6.292;2022-11-14T01:10:03;21.50;;;14.07;;
44536;SDS011;30245;51.966;6.292;2022-11-14T01:12:30;19.47;;;13.57;;
44536;SDS011;30245;51.966;6.292;2022-11-14T01:14:55;26.20;;;15.43;;
44536;SDS011;30245;51.966;6.292;2022-11-14T01:17:21;23.37;;;15.60;;
44536;SDS011;30245;51.966;6.292;2022-11-14T01:19:46;23.27;;;13.03;;
44536;SDS011;30245;51.966;6.292;2022-11-14T01:22:12;26.23;;;15.27;;
44536;SDS011;30245;51.966;6.292;2022-11-14T01:24:37;24.37;;;14.83;;
44536;SDS011;30245;51.966;6.292;2022-11-14T01:27:03;24.30;;;15.07;;
44536;SDS011;30245;51.966;6.292;2022-11-14T01:29:29;25.13;;;15.37;;
44536;SDS011;30245;51.966;6.292;2022-11-14T01:31:54;25.27;;;15.30;;
44536;SDS011;30245;51.966;6.292;2022-11-14T01:34:20;26.57;;;15.67;;
44536;SDS011;30245;51.966;6.292;2022-11-14T01:36:47;22.03;;;14.50;;
44536;SDS011;30245;51.966;6.292;2022-11-14T01:39:12;21.83;;;13.40;;
44536;SDS011;30245;51.966;6.292;2022-11-14T01:41:38;25.60;;;15.93;;
44536;SDS011;30245;51.966;6.292;2022-11-14T01:44:08;24.63;;;14.67;;
44536;SDS011;30245;51.966;6.292;2022-11-14T01:46:40;26.30;;;15.97;;
44536;SDS011;30245;51.966;6.292;2022-11-14T01:49:13;22.03;;;13.63;;
44536;SDS011;30245;51.966;6.292;2022-11-14T01:54:27;26.08;;;15.25;;
44536;SDS011;30245;51.966;6.292;2022-11-14T01:56:56;22.73;;;14.77;;
44536;SDS011;30245;51.966;6.292;2022-11-14T01:59:29;23.47;;;15.70;;
44536;SDS011;30245;51.966;6.292;2022-11-14T02:02:05;22.37;;;14.13;;
44536;SDS011;30245;51.966;6.292;2022-11-14T02:04:37;22.70;;;14.03;;
44536;SDS011;30245;51.966;6.292;2022-11-14T02:07:10;25.87;;;15.60;;
44536;SDS011;30245;51.966;6.292;2022-11-14T02:09:37;25.23;;;15.17;;
44536;SDS011;30245;51.966;6.292;2022-11-14T02:14:34;21.53;;;13.17;;
44536;SDS011;30245;51.966;6.292;2022-11-14T02:17:02;22.17;;;13.50;;
44536;SDS011;30245;51.966;6.292;2022-11-14T02:22:32;25.93;;;16.43;;
44536;SDS011;30245;51.966;6.292;2022-11-14T02:24:57;24.50;;;14.67;;
44536;SDS011;30245;51.966;6.292;2022-11-14T02:27:23;24.30;;;15.37;;
44536;SDS011;30245;51.966;6.292;2022-11-14T02:29:48;21.50;;;14.17;;
44536;SDS011;30245;51.966;6.292;2022-11-14T02:32:14;24.27;;;15.37;;
44536;SDS011;30245;51.966;6.292;2022-11-14T02:34:39;22.77;;;14.47;;
44536;SDS011;30245;51.966;6.292;2022-11-14T02:37:05;24.73;;;14.73;;
44536;SDS011;30245;51.966;6.292;2022-11-14T02:39:31;27.17;;;15.63;;
44536;SDS011;30245;51.966;6.292;2022-11-14T02:41:56;29.87;;;16.60;;
44536;SDS011;30245;51.966;6.292;2022-11-14T02:44:22;24.17;;;16.20;;
44536;SDS011;30245;51.966;6.292;2022-11-14T02:46:48;24.23;;;15.03;;
44536;SDS011;30245;51.966;6.292;2022-11-14T02:49:14;27.67;;;16.50;;
44536;SDS011;30245;51.966;6.292;2022-11-14T02:51:40;22.70;;;13.80;;
44536;SDS011;30245;51.966;6.292;2022-11-14T02:54:05;22.03;;;14.27;;
44536;SDS011;30245;51.966;6.292;2022-11-14T02:56:31;26.93;;;15.07;;
44536;SDS011;30245;51.966;6.292;2022-11-14T02:58:57;23.27;;;13.70;;
44536;SDS011;30245;51.966;6.292;2022-11-14T03:01:22;25.57;;;14.57;;
44536;SDS011;30245;51.966;6.292;2022-11-14T03:03:48;26.27;;;14.37;;
44536;SDS011;30245;51.966;6.292;2022-11-14T03:06:13;26.03;;;14.60;;
44536;SDS011;30245;51.966;6.292;2022-11-14T03:08:39;23.87;;;14.30;;
44536;SDS011;30245;51.966;6.292;2022-11-14T03:11:05;24.93;;;14.70;;
44536;SDS011;30245;51.966;6.292;2022-11-14T03:13:32;26.27;;;15.17;;
44536;SDS011;30245;51.966;6.292;2022-11-14T03:16:03;24.60;;;13.97;;
44536;SDS011;30245;51.966;6.292;2022-11-14T03:18:33;22.93;;;13.37;;
44536;SDS011;30245;51.966;6.292;2022-11-14T03:21:06;27.03;;;14.80;;
44536;SDS011;30245;51.966;6.292;2022-11-14T03:23:31;24.63;;;14.50;;
44536;SDS011;30245;51.966;6.292;2022-11-14T03:26:00;22.70;;;14.13;;
44536;SDS011;30245;51.966;6.292;2022-11-14T03:28:29;25.47;;;14.93;;
44536;SDS011;30245;51.966;6.292;2022-11-14T03:30:54;25.10;;;13.17;;
44536;SDS011;30245;51.966;6.292;2022-11-14T03:33:20;24.47;;;13.47;;
44536;SDS011;30245;51.966;6.292;2022-11-14T03:35:47;23.47;;;12.83;;
44536;SDS011;30245;51.966;6.292;2022-11-14T03:38:13;22.80;;;13.35;;
44536;SDS011;30245;51.966;6.292;2022-11-14T03:40:39;24.53;;;13.97;;
44536;SDS011;30245;51.966;6.292;2022-11-14T03:43:05;25.87;;;14.10;;
44536;SDS011;30245;51.966;6.292;2022-11-14T03:45:30;24.70;;;13.87;;
44536;SDS011;30245;51.966;6.292;2022-11-14T03:47:56;26.00;;;14.20;;
44536;SDS011;30245;51.966;6.292;2022-11-14T03:50:21;23.30;;;13.70;;
44536;SDS011;30245;51.966;6.292;2022-11-14T03:52:48;24.43;;;14.63;;
44536;SDS011;30245;51.966;6.292;2022-11-14T03:55:13;24.27;;;13.90;;
44536;SDS011;30245;51.966;6.292;2022-11-14T03:57:39;24.93;;;13.83;;
44536;SDS011;30245;51.966;6.292;2022-11-14T04:00:05;23.73;;;14.90;;
44536;SDS011;30245;51.966;6.292;2022-11-14T04:02:31;18.73;;;13.30;;
44536;SDS011;30245;51.966;6.292;2022-11-14T04:04:57;20.40;;;12.03;;
44536;SDS011;30245;51.966;6.292;2022-11-14T04:07:22;29.97;;;15.33;;
44536;SDS011;30245;51.966;6.292;2022-11-14T04:09:48;22.80;;;13.87;;
44536;SDS011;30245;51.966;6.292;2022-11-14T04:12:13;24.87;;;13.57;;
44536;SDS011;30245;51.966;6.292;2022-11-14T04:14:39;21.20;;;12.50;;
44536;SDS011;30245;51.966;6.292;2022-11-14T04:17:04;26.00;;;14.17;;
44536;SDS011;30245;51.966;6.292;2022-11-14T04:19:30;22.53;;;13.10;;
44536;SDS011;30245;51.966;6.292;2022-11-14T04:21:55;19.43;;;13.13;;
44536;SDS011;30245;51.966;6.292;2022-11-14T04:24:21;24.03;;;13.90;;
44536;SDS011;30245;51.966;6.292;2022-11-14T04:26:47;22.00;;;13.57;;
44536;SDS011;30245;51.966;6.292;2022-11-14T04:29:12;21.67;;;13.70;;
44536;SDS011;30245;51.966;6.292;2022-11-14T04:31:38;23.37;;;13.20;;
44536;SDS011;30245;51.966;6.292;2022-11-14T04:34:03;19.30;;;12.80;;
44536;SDS011;30245;51.966;6.292;2022-11-14T04:36:29;24.63;;;12.67;;
44536;SDS011;30245;51.966;6.292;2022-11-14T04:38:54;23.17;;;13.37;;
44536;SDS011;30245;51.966;6.292;2022-11-14T04:41:20;20.90;;;12.33;;
44536;SDS011;30245;51.966;6.292;2022-11-14T04:43:45;23.03;;;13.80;;
44536;SDS011;30245;51.966;6.292;2022-11-14T04:46:11;24.73;;;14.10;;
44536;SDS011;30245;51.966;6.292;2022-11-14T04:48:36;22.63;;;12.87;;
44536;SDS011;30245;51.966;6.292;2022-11-14T04:51:02;24.37;;;13.07;;
44536;SDS011;30245;51.966;6.292;2022-11-14T04:53:27;25.27;;;14.83;;
44536;SDS011;30245;51.966;6.292;2022-11-14T04:55:53;23.37;;;12.50;;
44536;SDS011;30245;51.966;6.292;2022-11-14T04:58:18;21.47;;;11.50;;
44536;SDS011;30245;51.966;6.292;2022-11-14T05:00:44;21.13;;;13.47;;
44536;SDS011;30245;51.966;6.292;2022-11-14T05:03:09;22.40;;;13.70;;
44536;SDS011;30245;51.966;6.292;2022-11-14T05:05:35;20.37;;;11.77;;
44536;SDS011;30245;51.966;6.292;2022-11-14T05:08:01;23.10;;;12.47;;
44536;SDS011;30245;51.966;6.292;2022-11-14T05:10:26;26.03;;;12.43;;
44536;SDS011;30245;51.966;6.292;2022-11-14T05:12:52;25.30;;;14.03;;
44536;SDS011;30245;51.966;6.292;2022-11-14T05:15:18;24.47;;;14.13;;
44536;SDS011;30245;51.966;6.292;2022-11-14T05:17:44;21.63;;;13.10;;
44536;SDS011;30245;51.966;6.292;2022-11-14T05:20:10;20.40;;;13.10;;
44536;SDS011;30245;51.966;6.292;2022-11-14T05:22:36;20.67;;;12.30;;
44536;SDS011;30245;51.966;6.292;2022-11-14T05:25:02;20.03;;;11.60;;
44536;SDS011;30245;51.966;6.292;2022-11-14T05:27:28;16.83;;;11.53;;
44536;SDS011;30245;51.966;6.292;2022-11-14T05:29:54;23.13;;;11.63;;
44536;SDS011;30245;51.966;6.292;2022-11-14T05:32:20;20.77;;;12.00;;
44536;SDS011;30245;51.966;6.292;2022-11-14T05:34:46;24.43;;;14.63;;
44536;SDS011;30245;51.966;6.292;2022-11-14T05:37:11;21.23;;;12.43;;
44536;SDS011;30245;51.966;6.292;2022-11-14T05:39:37;20.23;;;12.20;;
44536;SDS011;30245;51.966;6.292;2022-11-14T05:42:02;23.43;;;13.33;;
44536;SDS011;30245;51.966;6.292;2022-11-14T05:44:28;24.30;;;13.40;;
44536;SDS011;30245;51.966;6.292;2022-11-14T05:46:54;21.83;;;13.60;;
44536;SDS011;30245;51.966;6.292;2022-11-14T05:49:19;25.20;;;12.97;;
44536;SDS011;30245;51.966;6.292;2022-11-14T05:51:45;22.53;;;12.43;;
44536;SDS011;30245;51.966;6.292;2022-11-14T05:54:11;21.53;;;12.53;;
44536;SDS011;30245;51.966;6.292;2022-11-14T05:56:36;22.10;;;12.43;;
44536;SDS011;30245;51.966;6.292;2022-11-14T05:59:02;20.50;;;12.47;;
44536;SDS011;30245;51.966;6.292;2022-11-14T06:01:27;24.07;;;12.53;;
44536;SDS011;30245;51.966;6.292;2022-11-14T06:03:53;24.83;;;12.47;;
44536;SDS011;30245;51.966;6.292;2022-11-14T06:06:19;22.40;;;12.13;;
44536;SDS011;30245;51.966;6.292;2022-11-14T06:08:45;20.07;;;11.90;;
44536;SDS011;30245;51.966;6.292;2022-11-14T06:11:13;23.50;;;13.27;;
44536;SDS011;30245;51.966;6.292;2022-11-14T06:13:40;18.75;;;11.68;;
44536;SDS011;30245;51.966;6.292;2022-11-14T06:16:08;21.33;;;12.53;;
44536;SDS011;30245;51.966;6.292;2022-11-14T06:18:35;22.23;;;11.95;;
44536;SDS011;30245;51.966;6.292;2022-11-14T06:21:02;20.90;;;11.37;;
44536;SDS011;30245;51.966;6.292;2022-11-14T06:23:34;18.20;;;10.10;;
44536;SDS011;30245;51.966;6.292;2022-11-14T06:26:00;21.33;;;11.97;;
44536;SDS011;30245;51.966;6.292;2022-11-14T06:28:27;19.00;;;11.40;;
44536;SDS011;30245;51.966;6.292;2022-11-14T06:30:59;20.37;;;11.27;;
44536;SDS011;30245;51.966;6.292;2022-11-14T06:33:26;21.67;;;12.10;;
44536;SDS011;30245;51.966;6.292;2022-11-14T06:35:56;22.73;;;13.13;;
44536;SDS011;30245;51.966;6.292;2022-11-14T06:38:23;22.07;;;12.60;;
44536;SDS011;30245;51.966;6.292;2022-11-14T06:40:48;22.17;;;14.07;;
44536;SDS011;30245;51.966;6.292;2022-11-14T06:43:14;21.67;;;11.77;;
44536;SDS011;30245;51.966;6.292;2022-11-14T06:45:39;19.43;;;11.60;;
44536;SDS011;30245;51.966;6.292;2022-11-14T06:48:05;18.23;;;10.93;;
44536;SDS011;30245;51.966;6.292;2022-11-14T06:50:31;20.67;;;12.10;;
44536;SDS011;30245;51.966;6.292;2022-11-14T06:52:57;18.27;;;11.63;;
44536;SDS011;30245;51.966;6.292;2022-11-14T06:55:22;20.63;;;12.67;;
44536;SDS011;30245;51.966;6.292;2022-11-14T06:57:54;19.50;;;10.73;;
44536;SDS011;30245;51.966;6.292;2022-11-14T07:00:20;19.13;;;11.27;;
44536;SDS011;30245;51.966;6.292;2022-11-14T07:02:47;20.37;;;13.00;;
44536;SDS011;30245;51.966;6.292;2022-11-14T07:05:13;23.00;;;11.47;;
44536;SDS011;30245;51.966;6.292;2022-11-14T07:07:40;19.33;;;11.03;;
44536;SDS011;30245;51.966;6.292;2022-11-14T07:10:05;23.07;;;12.80;;
44536;SDS011;30245;51.966;6.292;2022-11-14T07:12:31;20.10;;;12.23;;
44536;SDS011;30245;51.966;6.292;2022-11-14T07:14:57;19.50;;;10.50;;
44536;SDS011;30245;51.966;6.292;2022-11-14T07:17:22;17.77;;;10.40;;
44536;SDS011;30245;51.966;6.292;2022-11-14T07:19:48;18.83;;;9.80;;
44536;SDS011;30245;51.966;6.292;2022-11-14T07:22:14;19.40;;;11.47;;
44536;SDS011;30245;51.966;6.292;2022-11-14T07:24:39;18.67;;;10.00;;
44536;SDS011;30245;51.966;6.292;2022-11-14T07:27:05;22.83;;;11.77;;
44536;SDS011;30245;51.966;6.292;2022-11-14T07:29:33;18.50;;;10.33;;
44536;SDS011;30245;51.966;6.292;2022-11-14T07:31:58;18.27;;;10.13;;
44536;SDS011;30245;51.966;6.292;2022-11-14T07:34:24;16.77;;;9.63;;
44536;SDS011;30245;51.966;6.292;2022-11-14T07:36:49;20.40;;;11.03;;
44536;SDS011;30245;51.966;6.292;2022-11-14T07:39:15;15.90;;;11.20;;
44536;SDS011;30245;51.966;6.292;2022-11-14T07:41:41;18.80;;;10.33;;
44536;SDS011;30245;51.966;6.292;2022-11-14T07:44:07;18.97;;;9.03;;
44536;SDS011;30245;51.966;6.292;2022-11-14T07:46:32;19.77;;;11.23;;
44536;SDS011;30245;51.966;6.292;2022-11-14T07:48:58;17.93;;;11.73;;
44536;SDS011;30245;51.966;6.292;2022-11-14T07:51:24;19.73;;;11.83;;
44536;SDS011;30245;51.966;6.292;2022-11-14T07:53:50;20.57;;;13.53;;
44536;SDS011;30245;51.966;6.292;2022-11-14T07:56:17;16.90;;;11.83;;
44536;SDS011;30245;51.966;6.292;2022-11-14T07:58:44;19.50;;;13.30;;
44536;SDS011;30245;51.966;6.292;2022-11-14T08:01:10;20.47;;;13.00;;
44536;SDS011;30245;51.966;6.292;2022-11-14T08:03:36;22.80;;;13.23;;
44536;SDS011;30245;51.966;6.292;2022-11-14T08:06:06;21.73;;;13.50;;
44536;SDS011;30245;51.966;6.292;2022-11-14T08:08:34;19.57;;;14.37;;
44536;SDS011;30245;51.966;6.292;2022-11-14T08:11:00;23.23;;;13.30;;
44536;SDS011;30245;51.966;6.292;2022-11-14T08:13:26;20.83;;;14.20;;
44536;SDS011;30245;51.966;6.292;2022-11-14T08:15:52;18.83;;;13.53;;
44536;SDS011;30245;51.966;6.292;2022-11-14T08:18:18;23.20;;;13.87;;
44536;SDS011;30245;51.966;6.292;2022-11-14T08:20:43;18.40;;;12.77;;
44536;SDS011;30245;51.966;6.292;2022-11-14T08:23:09;22.17;;;13.33;;
44536;SDS011;30245;51.966;6.292;2022-11-14T08:25:35;19.67;;;14.07;;
44536;SDS011;30245;51.966;6.292;2022-11-14T08:28:01;21.33;;;14.37;;
44536;SDS011;30245;51.966;6.292;2022-11-14T08:30:27;22.80;;;14.50;;
44536;SDS011;30245;51.966;6.292;2022-11-14T08:32:53;19.73;;;12.10;;
44536;SDS011;30245;51.966;6.292;2022-11-14T08:35:18;21.60;;;13.20;;
44536;SDS011;30245;51.966;6.292;2022-11-14T08:37:44;19.63;;;12.80;;
44536;SDS011;30245;51.966;6.292;2022-11-14T08:40:10;18.77;;;12.87;;
44536;SDS011;30245;51.966;6.292;2022-11-14T08:42:36;17.00;;;11.97;;
44536;SDS011;30245;51.966;6.292;2022-11-14T08:45:02;17.53;;;11.70;;
44536;SDS011;30245;51.966;6.292;2022-11-14T08:47:28;18.97;;;12.67;;
44536;SDS011;30245;51.966;6.292;2022-11-14T08:49:53;18.90;;;13.97;;
44536;SDS011;30245;51.966;6.292;2022-11-14T08:52:19;14.67;;;11.83;;
44536;SDS011;30245;51.966;6.292;2022-11-14T08:54:45;21.77;;;13.43;;
44536;SDS011;30245;51.966;6.292;2022-11-14T08:57:11;15.80;;;11.77;;
44536;SDS011;30245;51.966;6.292;2022-11-14T08:59:39;17.00;;;10.88;;
44536;SDS011;30245;51.966;6.292;2022-11-14T09:02:05;14.97;;;10.60;;
44536;SDS011;30245;51.966;6.292;2022-11-14T09:04:31;14.23;;;10.37;;
44536;SDS011;30245;51.966;6.292;2022-11-14T09:06:56;15.73;;;10.50;;
44536;SDS011;30245;51.966;6.292;2022-11-14T09:09:22;11.10;;;9.33;;
44536;SDS011;30245;51.966;6.292;2022-11-14T09:11:48;15.73;;;11.17;;
44536;SDS011;30245;51.966;6.292;2022-11-14T09:14:14;14.67;;;11.13;;
44536;SDS011;30245;51.966;6.292;2022-11-14T09:16:39;13.30;;;9.70;;
44536;SDS011;30245;51.966;6.292;2022-11-14T09:19:05;16.13;;;10.67;;
44536;SDS011;30245;51.966;6.292;2022-11-14T09:21:30;13.67;;;9.27;;
44536;SDS011;30245;51.966;6.292;2022-11-14T09:23:56;10.93;;;8.47;;
44536;SDS011;30245;51.966;6.292;2022-11-14T09:26:22;12.60;;;8.40;;
44536;SDS011;30245;51.966;6.292;2022-11-14T09:28:47;11.13;;;9.40;;
44536;SDS011;30245;51.966;6.292;2022-11-14T09:31:13;13.83;;;10.00;;
44536;SDS011;30245;51.966;6.292;2022-11-14T09:33:39;12.33;;;10.30;;
44536;SDS011;30245;51.966;6.292;2022-11-14T09:36:06;10.67;;;7.93;;
44536;SDS011;30245;51.966;6.292;2022-11-14T09:38:33;12.07;;;8.52;;
44536;SDS011;30245;51.966;6.292;2022-11-14T09:46:03;10.33;;;7.37;;
44536;SDS011;30245;51.966;6.292;2022-11-14T09:48:40;8.35;;;6.50;;
44536;SDS011;30245;51.966;6.292;2022-11-14T09:51:07;7.75;;;6.57;;
44536;SDS011;30245;51.966;6.292;2022-11-14T09:53:49;9.32;;;7.50;;
44536;SDS011;30245;51.966;6.292;2022-11-14T09:56:18;10.65;;;8.15;;
44536;SDS011;30245;51.966;6.292;2022-11-14T09:58:48;9.45;;;6.90;;
44536;SDS011;30245;51.966;6.292;2022-11-14T10:01:23;11.48;;;6.88;;
44536;SDS011;30245;51.966;6.292;2022-11-14T10:06:44;7.03;;;6.32;;
44536;SDS011;30245;51.966;6.292;2022-11-14T10:09:30;6.65;;;5.40;;
44536;SDS011;30245;51.966;6.292;2022-11-14T10:23:09;6.60;;;5.78;;
44536;SDS011;30245;51.966;6.292;2022-11-14T10:25:41;7.60;;;6.05;;
44536;SDS011;30245;51.966;6.292;2022-11-14T10:28:57;7.63;;;5.28;;
44536;SDS011;30245;51.966;6.292;2022-11-14T10:31:36;7.28;;;6.45;;
44536;SDS011;30245;51.966;6.292;2022-11-14T10:42:23;9.65;;;6.13;;
44536;SDS011;30245;51.966;6.292;2022-11-14T10:44:55;8.55;;;7.10;;
44536;SDS011;30245;51.966;6.292;2022-11-14T10:47:34;10.00;;;7.18;;
44536;SDS011;30245;51.966;6.292;2022-11-14T10:50:10;6.72;;;5.72;;
44536;SDS011;30245;51.966;6.292;2022-11-14T10:52:50;9.85;;;7.10;;
44536;SDS011;30245;51.966;6.292;2022-11-14T10:55:20;8.50;;;5.95;;
44536;SDS011;30245;51.966;6.292;2022-11-14T10:57:48;8.63;;;6.95;;
44536;SDS011;30245;51.966;6.292;2022-11-14T11:00:20;8.25;;;7.00;;
44536;SDS011;30245;51.966;6.292;2022-11-14T11:05:17;6.38;;;5.75;;
44536;SDS011;30245;51.966;6.292;2022-11-14T11:07:45;7.28;;;6.43;;
44536;SDS011;30245;51.966;6.292;2022-11-14T11:10:31;7.07;;;5.88;;
44536;SDS011;30245;51.966;6.292;2022-11-14T11:13:33;8.95;;;7.45;;
44536;SDS011;30245;51.966;6.292;2022-11-14T11:16:01;8.55;;;6.03;;
44536;SDS011;30245;51.966;6.292;2022-11-14T11:21:00;8.43;;;6.82;;
44536;SDS011;30245;51.966;6.292;2022-11-14T11:23:29;7.63;;;6.68;;
44536;SDS011;30245;51.966;6.292;2022-11-14T11:25:58;8.90;;;7.43;;
44536;SDS011;30245;51.966;6.292;2022-11-14T11:28:30;8.10;;;6.80;;
44536;SDS011;30245;51.966;6.292;2022-11-14T11:30:58;10.15;;;6.78;;
44536;SDS011;30245;51.966;6.292;2022-11-14T11:33:27;7.05;;;6.22;;
44536;SDS011;30245;51.966;6.292;2022-11-14T11:36:00;12.27;;;8.00;;
44536;SDS011;30245;51.966;6.292;2022-11-14T11:38:47;12.48;;;6.40;;
44536;SDS011;30245;51.966;6.292;2022-11-14T11:41:22;8.48;;;6.60;;
44536;SDS011;30245;51.966;6.292;2022-11-14T11:43:51;9.23;;;6.45;;
44536;SDS011;30245;51.966;6.292;2022-11-14T11:46:23;13.07;;;7.90;;
44536;SDS011;30245;51.966;6.292;2022-11-14T11:49:06;9.10;;;7.15;;
44536;SDS011;30245;51.966;6.292;2022-11-14T11:51:51;8.48;;;6.97;;
44536;SDS011;30245;51.966;6.292;2022-11-14T11:54:19;8.73;;;7.00;;
44536;SDS011;30245;51.966;6.292;2022-11-14T11:57:14;10.70;;;8.20;;
44536;SDS011;30245;51.966;6.292;2022-11-14T11:59:45;12.33;;;9.90;;
44536;SDS011;30245;51.966;6.292;2022-11-14T12:02:23;13.33;;;9.93;;
44536;SDS011;30245;51.966;6.292;2022-11-14T12:04:50;11.43;;;9.20;;
44536;SDS011;30245;51.966;6.292;2022-11-14T12:07:19;11.43;;;9.23;;
44536;SDS011;30245;51.966;6.292;2022-11-14T12:09:54;12.90;;;9.07;;
44536;SDS011;30245;51.966;6.292;2022-11-14T12:12:26;10.20;;;8.95;;
44536;SDS011;30245;51.966;6.292;2022-11-14T12:20:49;11.47;;;9.30;;
44536;SDS011;30245;51.966;6.292;2022-11-14T12:23:31;13.73;;;9.50;;
44536;SDS011;30245;51.966;6.292;2022-11-14T12:26:47;14.10;;;9.83;;
44536;SDS011;30245;51.966;6.292;2022-11-14T12:31:55;10.77;;;8.10;;
44536;SDS011;30245;51.966;6.292;2022-11-14T12:34:25;12.67;;;8.77;;
44536;SDS011;30245;51.966;6.292;2022-11-14T12:36:53;10.80;;;7.57;;
44536;SDS011;30245;51.966;6.292;2022-11-14T12:39:28;10.63;;;7.90;;
44536;SDS011;30245;51.966;6.292;2022-11-14T12:42:02;10.17;;;8.47;;
44536;SDS011;30245;51.966;6.292;2022-11-14T12:44:34;10.33;;;8.43;;
44536;SDS011;30245;51.966;6.292;2022-11-14T12:49:55;12.60;;;8.95;;
44536;SDS011;30245;51.966;6.292;2022-11-14T12:58:05;11.13;;;7.67;;
44536;SDS011;30245;51.966;6.292;2022-11-14T13:06:08;7.73;;;5.20;;
44536;SDS011;30245;51.966;6.292;2022-11-14T13:11:48;6.23;;;4.93;;
44536;SDS011;30245;51.966;6.292;2022-11-14T13:14:51;7.10;;;4.50;;
44536;SDS011;30245;51.966;6.292;2022-11-14T13:17:37;5.23;;;4.73;;
44536;SDS011;30245;51.966;6.292;2022-11-14T13:20:32;4.50;;;3.67;;
44536;SDS011;30245;51.966;6.292;2022-11-14T13:33:40;7.50;;;5.22;;
44536;SDS011;30245;51.966;6.292;2022-11-14T13:36:55;4.70;;;3.83;;
44536;SDS011;30245;51.966;6.292;2022-11-14T13:39:21;5.03;;;4.03;;
44536;SDS011;30245;51.966;6.292;2022-11-14T13:41:58;7.75;;;5.15;;
44536;SDS011;30245;51.966;6.292;2022-11-14T13:52:33;5.90;;;4.87;;
44536;SDS011;30245;51.966;6.292;2022-11-14T13:55:04;5.73;;;4.53;;
44536;SDS011;30245;51.966;6.292;2022-11-14T14:00:53;7.27;;;4.43;;
44536;SDS011;30245;51.966;6.292;2022-11-14T14:09:12;7.18;;;4.65;;
44536;SDS011;30245;51.966;6.292;2022-11-14T14:17:10;4.87;;;4.10;;
44536;SDS011;30245;51.966;6.292;2022-11-14T14:25:30;5.70;;;4.53;;
44536;SDS011;30245;51.966;6.292;2022-11-14T14:28:17;7.33;;;4.47;;
44536;SDS011;30245;51.966;6.292;2022-11-14T14:31:03;6.60;;;4.60;;
44536;SDS011;30245;51.966;6.292;2022-11-14T14:33:42;6.70;;;5.00;;
44536;SDS011;30245;51.966;6.292;2022-11-14T14:36:16;7.23;;;5.20;;
44536;SDS011;30245;51.966;6.292;2022-11-14T14:38:49;8.17;;;6.23;;
44536;SDS011;30245;51.966;6.292;2022-11-14T14:41:30;4.70;;;4.03;;
44536;SDS011;30245;51.966;6.292;2022-11-14T14:43:56;4.97;;;3.80;;
44536;SDS011;30245;51.966;6.292;2022-11-14T14:46:30;5.57;;;4.40;;
44536;SDS011;30245;51.966;6.292;2022-11-14T14:48:57;8.10;;;6.70;;
44536;SDS011;30245;51.966;6.292;2022-11-14T14:51:33;7.03;;;5.87;;
44536;SDS011;30245;51.966;6.292;2022-11-14T14:54:01;8.43;;;6.63;;
44536;SDS011;30245;51.966;6.292;2022-11-14T14:56:27;10.30;;;5.83;;
44536;SDS011;30245;51.966;6.292;2022-11-14T14:58:53;8.97;;;6.80;;
44536;SDS011;30245;51.966;6.292;2022-11-14T15:01:20;14.90;;;6.33;;
44536;SDS011;30245;51.966;6.292;2022-11-14T15:04:05;7.80;;;6.60;;
44536;SDS011;30245;51.966;6.292;2022-11-14T15:06:33;10.73;;;6.33;;
44536;SDS011;30245;51.966;6.292;2022-11-14T15:09:07;8.40;;;5.77;;
44536;SDS011;30245;51.966;6.292;2022-11-14T15:11:43;10.30;;;7.17;;
44536;SDS011;30245;51.966;6.292;2022-11-14T15:16:37;10.87;;;7.87;;
44536;SDS011;30245;51.966;6.292;2022-11-14T15:19:03;12.87;;;6.93;;
44536;SDS011;30245;51.966;6.292;2022-11-14T15:21:29;8.70;;;7.17;;
44536;SDS011;30245;51.966;6.292;2022-11-14T15:23:59;9.33;;;7.37;;
44536;SDS011;30245;51.966;6.292;2022-11-14T15:26:27;7.47;;;6.50;;
44536;SDS011;30245;51.966;6.292;2022-11-14T15:31:58;8.00;;;5.77;;
44536;SDS011;30245;51.966;6.292;2022-11-14T15:37:04;8.93;;;7.20;;
44536;SDS011;30245;51.966;6.292;2022-11-14T15:39:42;6.57;;;5.03;;
44536;SDS011;30245;51.966;6.292;2022-11-14T15:44:53;6.90;;;5.43;;
44536;SDS011;30245;51.966;6.292;2022-11-14T15:47:29;7.03;;;5.50;;
44536;SDS011;30245;51.966;6.292;2022-11-14T15:50:02;7.23;;;5.53;;
44536;SDS011;30245;51.966;6.292;2022-11-14T15:52:37;8.70;;;6.40;;
44536;SDS011;30245;51.966;6.292;2022-11-14T15:55:14;6.83;;;6.13;;
44536;SDS011;30245;51.966;6.292;2022-11-14T15:57:41;10.00;;;6.83;;
44536;SDS011;30245;51.966;6.292;2022-11-14T16:00:10;9.30;;;6.63;;
44536;SDS011;30245;51.966;6.292;2022-11-14T16:02:40;8.70;;;5.73;;
44536;SDS011;30245;51.966;6.292;2022-11-14T16:05:18;6.97;;;5.83;;
44536;SDS011;30245;51.966;6.292;2022-11-14T16:07:53;7.60;;;5.33;;
44536;SDS011;30245;51.966;6.292;2022-11-14T16:10:19;10.50;;;6.80;;
44536;SDS011;30245;51.966;6.292;2022-11-14T16:12:47;8.77;;;6.75;;
44536;SDS011;30245;51.966;6.292;2022-11-14T16:15:14;8.47;;;6.27;;
44536;SDS011;30245;51.966;6.292;2022-11-14T16:17:42;9.53;;;6.87;;
44536;SDS011;30245;51.966;6.292;2022-11-14T16:20:12;11.35;;;7.55;;
44536;SDS011;30245;51.966;6.292;2022-11-14T16:22:49;6.60;;;5.90;;
44536;SDS011;30245;51.966;6.292;2022-11-14T16:25:24;8.32;;;6.45;;
44536;SDS011;30245;51.966;6.292;2022-11-14T16:27:51;13.63;;;6.53;;
44536;SDS011;30245;51.966;6.292;2022-11-14T16:30:17;11.30;;;7.50;;
44536;SDS011;30245;51.966;6.292;2022-11-14T16:32:44;9.40;;;7.33;;
44536;SDS011;30245;51.966;6.292;2022-11-14T16:35:12;11.67;;;7.73;;